Florence Regional Airport
KFLO : now visible

Airfield :











YOU CAN JOIN US ON...

 
LOGIN :

Register | Disclaimer

   EN    FR    IT 

 









Legend :    VFR   Marginal VFR   IFR   Intensive IFR   Very Intensive IFR
Visi :
Ceiling :
>= 8 km
>= 3000ft
5 to 8 km
1000 to 3000 ft
1500m to 5 km
500 to 1000 ft
800 to 1500m
200 to 500 ft
< 800m
< 200 ft
Symbols :   Thunderstorms  Fog  Heavy snow  Heavy precipitations  Wind > 20 kt






- Airport Elevation : 146 ft
- IATA code : FLO


KFLO - Florence Regional

CURRENT METAR :
  • 281453Z 19006KT 10SM BKN013 BKN021 BKN033 28/23 A3009 RMK AO2 LTG DSNT NE SLP186 T02780228 51005

EXPIRED METARs :
  • 281416Z 18007KT 10SM SCT012 OVC020 27/23 A3008 RMK AO2 LTG DSNT E T02670228
  • 281353Z 18005KT 9SM BKN007 BKN011 OVC016 26/23 A3009 RMK AO2 CIG 006V010 SLP185 T02560233
  • 281256Z 17004KT 9SM BKN009 BKN013 OVC022 25/23 A3009 RMK AO2 CIG 006V012 T02500228
  • 281234Z AUTO 16003KT 7SM FEW006 BKN015 BKN022 24/23 A3008 RMK AO2 T02440228

TAF KFLO
Valid from the 28 at 12:00 until the 29 at 12:00 UTC


281139Z 2812/2912 VRB03KT 4SM BR OVC005
FM281400 17006KT P6SM VCSH BKN020
FM281900 17008KT P6SM VCSH BKN080
FM290300 17004KT P6SM BKN020
FM290700 19007KT 5SM BR BKN007
KZJX FIR / North America



MET'MAP, your aeronautical weather chart ! - Copyright ORBIFLY December 2007 - Disclaimer

ORBIFLY MET'MAP TEAM :

Programming & Development : Alexandra Zaïnal
Concept & original design : Baudouin d'Aumeries
Assistance for programming : Marc-Olivier Méhu
Technical & hardware support : Manuel Goepfert

Contact : metmap@orbifly.com




SOURCES & CREDITS :

   NOAA       Earth
Advisory